sensor_id;sensor_type;location;lat;lon;timestamp;P1;durP1;ratioP1;P2;durP2;ratioP2
17133;SDS011;8682;52.120;5.252;2022-10-16T00:00:32;191.37;;;170.83;;
17133;SDS011;8682;52.120;5.252;2022-10-16T00:03:00;236.63;;;213.80;;
17133;SDS011;8682;52.120;5.252;2022-10-16T00:05:27;238.37;;;212.87;;
17133;SDS011;8682;52.120;5.252;2022-10-16T00:07:54;233.93;;;211.27;;
17133;SDS011;8682;52.120;5.252;2022-10-16T00:10:21;273.73;;;246.50;;
17133;SDS011;8682;52.120;5.252;2022-10-16T00:12:49;300.90;;;268.33;;
17133;SDS011;8682;52.120;5.252;2022-10-16T00:15:16;279.40;;;249.97;;
17133;SDS011;8682;52.120;5.252;2022-10-16T00:17:44;329.93;;;298.27;;
17133;SDS011;8682;52.120;5.252;2022-10-16T00:20:11;331.53;;;297.40;;
17133;SDS011;8682;52.120;5.252;2022-10-16T00:22:38;315.37;;;285.53;;
17133;SDS011;8682;52.120;5.252;2022-10-16T00:25:06;319.43;;;287.67;;
17133;SDS011;8682;52.120;5.252;2022-10-16T00:27:34;294.50;;;263.77;;
17133;SDS011;8682;52.120;5.252;2022-10-16T00:30:01;288.73;;;259.70;;
17133;SDS011;8682;52.120;5.252;2022-10-16T00:32:28;284.73;;;252.87;;
17133;SDS011;8682;52.120;5.252;2022-10-16T00:34:57;249.27;;;225.33;;
17133;SDS011;8682;52.120;5.252;2022-10-16T00:37:24;260.13;;;234.73;;
17133;SDS011;8682;52.120;5.252;2022-10-16T00:39:51;256.60;;;232.73;;
17133;SDS011;8682;52.120;5.252;2022-10-16T00:42:18;252.37;;;225.93;;
17133;SDS011;8682;52.120;5.252;2022-10-16T00:44:49;226.87;;;203.27;;
17133;SDS011;8682;52.120;5.252;2022-10-16T00:47:18;250.63;;;225.77;;
17133;SDS011;8682;52.120;5.252;2022-10-16T00:49:46;232.50;;;208.03;;
17133;SDS011;8682;52.120;5.252;2022-10-16T00:52:15;267.33;;;234.90;;
17133;SDS011;8682;52.120;5.252;2022-10-16T00:54:43;253.30;;;226.77;;
17133;SDS011;8682;52.120;5.252;2022-10-16T00:57:11;242.80;;;218.63;;
17133;SDS011;8682;52.120;5.252;2022-10-16T00:59:38;211.60;;;186.70;;
17133;SDS011;8682;52.120;5.252;2022-10-16T01:02:07;198.27;;;177.20;;
17133;SDS011;8682;52.120;5.252;2022-10-16T01:04:35;217.10;;;195.70;;
17133;SDS011;8682;52.120;5.252;2022-10-16T01:07:05;212.00;;;189.37;;
17133;SDS011;8682;52.120;5.252;2022-10-16T01:09:36;208.73;;;184.17;;
17133;SDS011;8682;52.120;5.252;2022-10-16T01:12:06;234.43;;;208.47;;
17133;SDS011;8682;52.120;5.252;2022-10-16T01:14:36;219.80;;;187.57;;
17133;SDS011;8682;52.120;5.252;2022-10-16T01:17:06;206.17;;;183.70;;
17133;SDS011;8682;52.120;5.252;2022-10-16T01:19:41;210.97;;;188.00;;
17133;SDS011;8682;52.120;5.252;2022-10-16T01:22:11;239.83;;;215.17;;
17133;SDS011;8682;52.120;5.252;2022-10-16T01:24:40;225.27;;;203.33;;
17133;SDS011;8682;52.120;5.252;2022-10-16T01:27:17;217.43;;;194.77;;
17133;SDS011;8682;52.120;5.252;2022-10-16T01:29:48;234.93;;;211.10;;
17133;SDS011;8682;52.120;5.252;2022-10-16T01:32:17;223.80;;;200.53;;
17133;SDS011;8682;52.120;5.252;2022-10-16T01:34:47;252.67;;;225.60;;
17133;SDS011;8682;52.120;5.252;2022-10-16T01:37:16;214.87;;;192.73;;
17133;SDS011;8682;52.120;5.252;2022-10-16T01:39:45;237.77;;;211.60;;
17133;SDS011;8682;52.120;5.252;2022-10-16T01:42:16;192.70;;;172.33;;
17133;SDS011;8682;52.120;5.252;2022-10-16T01:44:45;231.90;;;209.40;;
17133;SDS011;8682;52.120;5.252;2022-10-16T01:47:14;221.40;;;199.63;;
17133;SDS011;8682;52.120;5.252;2022-10-16T01:49:41;254.93;;;228.40;;
17133;SDS011;8682;52.120;5.252;2022-10-16T01:52:10;244.30;;;219.37;;
17133;SDS011;8682;52.120;5.252;2022-10-16T01:54:39;285.03;;;256.40;;
17133;SDS011;8682;52.120;5.252;2022-10-16T01:57:07;292.53;;;264.57;;
17133;SDS011;8682;52.120;5.252;2022-10-16T01:59:37;291.87;;;262.93;;
17133;SDS011;8682;52.120;5.252;2022-10-16T02:02:06;298.53;;;269.57;;
17133;SDS011;8682;52.120;5.252;2022-10-16T02:04:36;279.20;;;250.53;;
17133;SDS011;8682;52.120;5.252;2022-10-16T02:07:04;239.87;;;209.30;;
17133;SDS011;8682;52.120;5.252;2022-10-16T02:09:32;235.10;;;211.47;;
17133;SDS011;8682;52.120;5.252;2022-10-16T02:12:00;257.67;;;209.13;;
17133;SDS011;8682;52.120;5.252;2022-10-16T02:14:28;234.70;;;209.53;;
17133;SDS011;8682;52.120;5.252;2022-10-16T02:16:57;205.77;;;184.83;;
17133;SDS011;8682;52.120;5.252;2022-10-16T02:19:24;251.07;;;226.73;;
17133;SDS011;8682;52.120;5.252;2022-10-16T02:21:52;574.20;;;329.97;;
17133;SDS011;8682;52.120;5.252;2022-10-16T02:24:22;232.63;;;208.40;;
17133;SDS011;8682;52.120;5.252;2022-10-16T02:26:56;277.27;;;247.63;;
17133;SDS011;8682;52.120;5.252;2022-10-16T02:29:25;261.83;;;236.83;;
17133;SDS011;8682;52.120;5.252;2022-10-16T02:31:53;221.07;;;197.90;;
17133;SDS011;8682;52.120;5.252;2022-10-16T02:34:23;251.57;;;225.53;;
17133;SDS011;8682;52.120;5.252;2022-10-16T02:36:52;231.90;;;208.83;;
17133;SDS011;8682;52.120;5.252;2022-10-16T02:39:20;235.87;;;212.20;;
17133;SDS011;8682;52.120;5.252;2022-10-16T02:41:47;212.57;;;189.73;;
17133;SDS011;8682;52.120;5.252;2022-10-16T02:44:14;238.10;;;211.37;;
17133;SDS011;8682;52.120;5.252;2022-10-16T02:46:41;197.70;;;173.90;;
17133;SDS011;8682;52.120;5.252;2022-10-16T02:49:09;186.23;;;165.90;;
17133;SDS011;8682;52.120;5.252;2022-10-16T02:51:37;288.60;;;205.03;;
17133;SDS011;8682;52.120;5.252;2022-10-16T02:54:04;153.43;;;134.10;;
17133;SDS011;8682;52.120;5.252;2022-10-16T02:56:32;176.10;;;151.90;;
17133;SDS011;8682;52.120;5.252;2022-10-16T02:58:59;167.17;;;143.60;;
17133;SDS011;8682;52.120;5.252;2022-10-16T03:01:26;146.53;;;130.03;;
17133;SDS011;8682;52.120;5.252;2022-10-16T03:03:53;153.53;;;125.03;;
17133;SDS011;8682;52.120;5.252;2022-10-16T03:06:20;172.40;;;145.57;;
17133;SDS011;8682;52.120;5.252;2022-10-16T03:08:49;161.17;;;137.63;;
17133;SDS011;8682;52.120;5.252;2022-10-16T03:11:17;153.37;;;130.73;;
17133;SDS011;8682;52.120;5.252;2022-10-16T03:13:44;160.97;;;141.00;;
17133;SDS011;8682;52.120;5.252;2022-10-16T03:16:11;161.97;;;144.43;;
17133;SDS011;8682;52.120;5.252;2022-10-16T03:18:38;165.00;;;142.20;;
17133;SDS011;8682;52.120;5.252;2022-10-16T03:21:05;156.80;;;139.53;;
17133;SDS011;8682;52.120;5.252;2022-10-16T03:23:32;159.13;;;142.30;;
17133;SDS011;8682;52.120;5.252;2022-10-16T03:26:01;173.63;;;128.13;;
17133;SDS011;8682;52.120;5.252;2022-10-16T03:28:28;148.63;;;132.83;;
17133;SDS011;8682;52.120;5.252;2022-10-16T03:30:55;142.37;;;125.83;;
17133;SDS011;8682;52.120;5.252;2022-10-16T03:33:22;165.20;;;143.33;;
17133;SDS011;8682;52.120;5.252;2022-10-16T03:35:53;153.93;;;137.37;;
17133;SDS011;8682;52.120;5.252;2022-10-16T03:38:20;150.67;;;135.00;;
17133;SDS011;8682;52.120;5.252;2022-10-16T03:40:47;145.23;;;127.87;;
17133;SDS011;8682;52.120;5.252;2022-10-16T03:43:16;168.40;;;142.10;;
17133;SDS011;8682;52.120;5.252;2022-10-16T03:45:43;170.53;;;152.57;;
17133;SDS011;8682;52.120;5.252;2022-10-16T03:48:10;183.67;;;161.33;;
17133;SDS011;8682;52.120;5.252;2022-10-16T03:50:37;158.47;;;140.63;;
17133;SDS011;8682;52.120;5.252;2022-10-16T03:53:04;193.90;;;138.57;;
17133;SDS011;8682;52.120;5.252;2022-10-16T03:55:31;154.27;;;134.97;;
17133;SDS011;8682;52.120;5.252;2022-10-16T03:57:58;149.73;;;126.33;;
17133;SDS011;8682;52.120;5.252;2022-10-16T04:00:27;155.67;;;139.67;;
17133;SDS011;8682;52.120;5.252;2022-10-16T04:02:54;174.40;;;138.97;;
17133;SDS011;8682;52.120;5.252;2022-10-16T04:05:21;148.47;;;131.83;;
17133;SDS011;8682;52.120;5.252;2022-10-16T04:07:48;159.20;;;131.73;;
17133;SDS011;8682;52.120;5.252;2022-10-16T04:10:15;149.67;;;126.43;;
17133;SDS011;8682;52.120;5.252;2022-10-16T04:12:42;166.30;;;124.33;;
17133;SDS011;8682;52.120;5.252;2022-10-16T04:15:10;139.97;;;114.87;;
17133;SDS011;8682;52.120;5.252;2022-10-16T04:17:38;127.43;;;113.77;;
17133;SDS011;8682;52.120;5.252;2022-10-16T04:20:06;163.10;;;139.40;;
17133;SDS011;8682;52.120;5.252;2022-10-16T04:22:33;159.63;;;127.93;;
17133;SDS011;8682;52.120;5.252;2022-10-16T04:25:00;145.57;;;130.70;;
17133;SDS011;8682;52.120;5.252;2022-10-16T04:27:27;159.53;;;144.17;;
17133;SDS011;8682;52.120;5.252;2022-10-16T04:29:56;152.17;;;135.97;;
17133;SDS011;8682;52.120;5.252;2022-10-16T04:32:23;148.43;;;132.33;;
17133;SDS011;8682;52.120;5.252;2022-10-16T04:34:51;153.77;;;137.17;;
17133;SDS011;8682;52.120;5.252;2022-10-16T04:37:19;146.63;;;122.53;;
17133;SDS011;8682;52.120;5.252;2022-10-16T04:39:46;149.53;;;126.77;;
17133;SDS011;8682;52.120;5.252;2022-10-16T04:42:13;145.13;;;128.80;;
17133;SDS011;8682;52.120;5.252;2022-10-16T04:44:40;136.67;;;122.83;;
17133;SDS011;8682;52.120;5.252;2022-10-16T04:47:07;287.67;;;273.77;;
17133;SDS011;8682;52.120;5.252;2022-10-16T04:49:34;131.43;;;118.60;;
17133;SDS011;8682;52.120;5.252;2022-10-16T04:52:03;110.53;;;94.53;;
17133;SDS011;8682;52.120;5.252;2022-10-16T04:54:30;126.57;;;111.70;;
17133;SDS011;8682;52.120;5.252;2022-10-16T04:56:57;123.67;;;109.70;;
17133;SDS011;8682;52.120;5.252;2022-10-16T04:59:24;140.33;;;114.30;;
17133;SDS011;8682;52.120;5.252;2022-10-16T05:01:51;135.97;;;118.73;;
17133;SDS011;8682;52.120;5.252;2022-10-16T05:04:18;139.13;;;111.43;;
17133;SDS011;8682;52.120;5.252;2022-10-16T05:06:45;129.03;;;98.13;;
17133;SDS011;8682;52.120;5.252;2022-10-16T05:09:15;132.17;;;105.97;;
17133;SDS011;8682;52.120;5.252;2022-10-16T05:11:43;163.53;;;115.43;;
17133;SDS011;8682;52.120;5.252;2022-10-16T05:14:10;121.87;;;109.67;;
17133;SDS011;8682;52.120;5.252;2022-10-16T05:16:37;134.67;;;107.80;;
17133;SDS011;8682;52.120;5.252;2022-10-16T05:19:04;143.63;;;116.77;;
17133;SDS011;8682;52.120;5.252;2022-10-16T05:21:31;138.27;;;113.47;;
17133;SDS011;8682;52.120;5.252;2022-10-16T05:23:58;144.23;;;109.10;;
17133;SDS011;8682;52.120;5.252;2022-10-16T05:26:27;151.87;;;123.33;;
17133;SDS011;8682;52.120;5.252;2022-10-16T05:28:54;121.17;;;101.63;;
17133;SDS011;8682;52.120;5.252;2022-10-16T05:31:21;130.20;;;108.13;;
17133;SDS011;8682;52.120;5.252;2022-10-16T05:33:48;160.53;;;118.63;;
17133;SDS011;8682;52.120;5.252;2022-10-16T05:36:15;132.67;;;102.33;;
17133;SDS011;8682;52.120;5.252;2022-10-16T05:38:43;123.40;;;103.03;;
17133;SDS011;8682;52.120;5.252;2022-10-16T05:41:10;134.47;;;119.27;;
17133;SDS011;8682;52.120;5.252;2022-10-16T05:43:38;130.10;;;112.30;;
17133;SDS011;8682;52.120;5.252;2022-10-16T05:46:06;131.13;;;116.60;;
17133;SDS011;8682;52.120;5.252;2022-10-16T05:48:33;134.33;;;119.63;;
17133;SDS011;8682;52.120;5.252;2022-10-16T05:51:00;132.37;;;113.40;;
17133;SDS011;8682;52.120;5.252;2022-10-16T05:53:28;119.67;;;104.50;;
17133;SDS011;8682;52.120;5.252;2022-10-16T05:55:56;158.53;;;129.13;;
17133;SDS011;8682;52.120;5.252;2022-10-16T05:58:23;181.07;;;127.67;;
17133;SDS011;8682;52.120;5.252;2022-10-16T06:00:55;133.87;;;119.97;;
17133;SDS011;8682;52.120;5.252;2022-10-16T06:03:23;138.87;;;120.83;;
17133;SDS011;8682;52.120;5.252;2022-10-16T06:05:50;162.33;;;135.03;;
17133;SDS011;8682;52.120;5.252;2022-10-16T06:08:17;146.93;;;126.43;;
17133;SDS011;8682;52.120;5.252;2022-10-16T06:10:44;148.60;;;128.50;;
17133;SDS011;8682;52.120;5.252;2022-10-16T06:13:12;125.97;;;112.87;;
17133;SDS011;8682;52.120;5.252;2022-10-16T06:15:39;131.20;;;117.13;;
17133;SDS011;8682;52.120;5.252;2022-10-16T06:18:08;132.33;;;117.37;;
17133;SDS011;8682;52.120;5.252;2022-10-16T06:20:36;141.20;;;126.70;;
17133;SDS011;8682;52.120;5.252;2022-10-16T06:23:03;171.30;;;152.23;;
17133;SDS011;8682;52.120;5.252;2022-10-16T06:25:30;172.63;;;154.10;;
17133;SDS011;8682;52.120;5.252;2022-10-16T06:27:57;163.57;;;146.43;;
17133;SDS011;8682;52.120;5.252;2022-10-16T06:30:25;211.40;;;170.23;;
17133;SDS011;8682;52.120;5.252;2022-10-16T06:32:52;189.40;;;164.07;;
17133;SDS011;8682;52.120;5.252;2022-10-16T06:35:20;192.97;;;172.93;;
17133;SDS011;8682;52.120;5.252;2022-10-16T06:37:47;206.60;;;165.53;;
17133;SDS011;8682;52.120;5.252;2022-10-16T06:40:14;182.07;;;162.93;;
17133;SDS011;8682;52.120;5.252;2022-10-16T06:42:42;182.63;;;162.77;;
17133;SDS011;8682;52.120;5.252;2022-10-16T06:45:09;171.53;;;153.43;;
17133;SDS011;8682;52.120;5.252;2022-10-16T06:47:37;173.87;;;150.90;;
17133;SDS011;8682;52.120;5.252;2022-10-16T06:50:05;156.10;;;138.23;;
17133;SDS011;8682;52.120;5.252;2022-10-16T06:52:34;158.30;;;130.23;;
17133;SDS011;8682;52.120;5.252;2022-10-16T06:55:01;146.40;;;130.57;;
17133;SDS011;8682;52.120;5.252;2022-10-16T06:57:28;141.03;;;122.03;;
17133;SDS011;8682;52.120;5.252;2022-10-16T06:59:56;130.30;;;115.43;;
17133;SDS011;8682;52.120;5.252;2022-10-16T07:02:23;125.83;;;112.83;;
17133;SDS011;8682;52.120;5.252;2022-10-16T07:04:50;135.67;;;112.63;;
17133;SDS011;8682;52.120;5.252;2022-10-16T07:07:17;126.10;;;107.47;;
17133;SDS011;8682;52.120;5.252;2022-10-16T07:09:45;124.60;;;111.33;;
17133;SDS011;8682;52.120;5.252;2022-10-16T07:12:12;122.13;;;110.33;;
17133;SDS011;8682;52.120;5.252;2022-10-16T07:14:40;148.13;;;114.27;;
17133;SDS011;8682;52.120;5.252;2022-10-16T07:17:07;124.90;;;104.73;;
17133;SDS011;8682;52.120;5.252;2022-10-16T07:19:34;116.83;;;104.73;;
17133;SDS011;8682;52.120;5.252;2022-10-16T07:22:01;111.67;;;99.93;;
17133;SDS011;8682;52.120;5.252;2022-10-16T07:24:29;138.83;;;109.07;;
17133;SDS011;8682;52.120;5.252;2022-10-16T07:26:58;110.33;;;98.63;;
17133;SDS011;8682;52.120;5.252;2022-10-16T07:29:25;109.37;;;96.87;;
17133;SDS011;8682;52.120;5.252;2022-10-16T07:31:52;109.27;;;94.67;;
17133;SDS011;8682;52.120;5.252;2022-10-16T07:34:20;114.37;;;99.13;;
17133;SDS011;8682;52.120;5.252;2022-10-16T07:36:47;99.40;;;89.17;;
17133;SDS011;8682;52.120;5.252;2022-10-16T07:39:15;119.60;;;99.27;;
17133;SDS011;8682;52.120;5.252;2022-10-16T07:41:42;115.40;;;101.80;;
17133;SDS011;8682;52.120;5.252;2022-10-16T07:44:11;147.90;;;120.30;;
17133;SDS011;8682;52.120;5.252;2022-10-16T07:46:38;121.77;;;99.77;;
17133;SDS011;8682;52.120;5.252;2022-10-16T07:49:05;135.83;;;110.93;;
17133;SDS011;8682;52.120;5.252;2022-10-16T07:51:32;152.37;;;126.43;;
17133;SDS011;8682;52.120;5.252;2022-10-16T07:53:59;146.40;;;129.97;;
17133;SDS011;8682;52.120;5.252;2022-10-16T07:56:26;139.40;;;116.20;;
17133;SDS011;8682;52.120;5.252;2022-10-16T07:58:54;138.37;;;115.33;;
17133;SDS011;8682;52.120;5.252;2022-10-16T08:01:22;158.03;;;121.40;;
17133;SDS011;8682;52.120;5.252;2022-10-16T08:03:51;147.20;;;111.77;;
17133;SDS011;8682;52.120;5.252;2022-10-16T08:06:19;156.63;;;119.20;;
17133;SDS011;8682;52.120;5.252;2022-10-16T08:08:46;116.43;;;104.20;;
17133;SDS011;8682;52.120;5.252;2022-10-16T08:11:14;102.87;;;92.03;;
17133;SDS011;8682;52.120;5.252;2022-10-16T08:13:41;114.17;;;97.73;;
17133;SDS011;8682;52.120;5.252;2022-10-16T08:16:08;121.70;;;97.27;;
17133;SDS011;8682;52.120;5.252;2022-10-16T08:18:37;121.60;;;97.27;;
17133;SDS011;8682;52.120;5.252;2022-10-16T08:21:05;116.27;;;104.03;;
17133;SDS011;8682;52.120;5.252;2022-10-16T08:23:33;106.53;;;92.83;;
17133;SDS011;8682;52.120;5.252;2022-10-16T08:26:04;106.20;;;94.97;;
17133;SDS011;8682;52.120;5.252;2022-10-16T08:28:31;114.80;;;102.03;;
17133;SDS011;8682;52.120;5.252;2022-10-16T08:31:04;109.17;;;94.37;;
17133;SDS011;8682;52.120;5.252;2022-10-16T08:33:31;114.23;;;101.27;;
17133;SDS011;8682;52.120;5.252;2022-10-16T08:36:01;118.80;;;103.33;;
17133;SDS011;8682;52.120;5.252;2022-10-16T08:38:28;300.23;;;156.30;;
17133;SDS011;8682;52.120;5.252;2022-10-16T08:40:56;139.30;;;110.03;;
17133;SDS011;8682;52.120;5.252;2022-10-16T08:43:31;109.53;;;99.10;;
17133;SDS011;8682;52.120;5.252;2022-10-16T08:48:48;131.93;;;117.83;;
17133;SDS011;8682;52.120;5.252;2022-10-16T08:51:19;127.93;;;114.37;;
17133;SDS011;8682;52.120;5.252;2022-10-16T08:53:49;147.97;;;126.87;;
17133;SDS011;8682;52.120;5.252;2022-10-16T08:56:17;132.70;;;112.53;;
17133;SDS011;8682;52.120;5.252;2022-10-16T08:58:44;201.40;;;143.63;;
17133;SDS011;8682;52.120;5.252;2022-10-16T09:01:12;141.10;;;120.83;;
17133;SDS011;8682;52.120;5.252;2022-10-16T09:03:43;139.53;;;123.13;;
17133;SDS011;8682;52.120;5.252;2022-10-16T09:09:02;142.67;;;123.60;;
17133;SDS011;8682;52.120;5.252;2022-10-16T09:11:36;148.60;;;130.93;;
17133;SDS011;8682;52.120;5.252;2022-10-16T09:14:11;149.43;;;128.13;;
17133;SDS011;8682;52.120;5.252;2022-10-16T09:16:42;166.60;;;128.70;;
17133;SDS011;8682;52.120;5.252;2022-10-16T09:19:13;147.53;;;128.57;;
17133;SDS011;8682;52.120;5.252;2022-10-16T09:21:42;154.13;;;135.47;;
17133;SDS011;8682;52.120;5.252;2022-10-16T09:24:13;173.23;;;138.30;;
17133;SDS011;8682;52.120;5.252;2022-10-16T09:26:41;153.07;;;135.03;;
17133;SDS011;8682;52.120;5.252;2022-10-16T09:29:08;155.90;;;139.17;;
17133;SDS011;8682;52.120;5.252;2022-10-16T09:31:36;158.83;;;142.80;;
17133;SDS011;8682;52.120;5.252;2022-10-16T09:34:03;156.03;;;139.67;;
17133;SDS011;8682;52.120;5.252;2022-10-16T09:36:35;163.27;;;146.53;;
17133;SDS011;8682;52.120;5.252;2022-10-16T09:39:05;175.23;;;156.70;;
17133;SDS011;8682;52.120;5.252;2022-10-16T09:41:35;228.83;;;194.87;;
17133;SDS011;8682;52.120;5.252;2022-10-16T09:44:03;237.50;;;212.47;;
17133;SDS011;8682;52.120;5.252;2022-10-16T09:46:32;206.23;;;185.17;;
17133;SDS011;8682;52.120;5.252;2022-10-16T09:49:00;196.10;;;175.10;;
17133;SDS011;8682;52.120;5.252;2022-10-16T09:51:28;228.77;;;206.50;;
17133;SDS011;8682;52.120;5.252;2022-10-16T09:53:57;274.60;;;249.93;;
17133;SDS011;8682;52.120;5.252;2022-10-16T09:56:25;405.00;;;366.90;;
17133;SDS011;8682;52.120;5.252;2022-10-16T09:58:55;616.13;;;556.07;;
17133;SDS011;8682;52.120;5.252;2022-10-16T10:01:23;520.00;;;468.47;;
17133;SDS011;8682;52.120;5.252;2022-10-16T10:03:55;503.97;;;452.37;;
17133;SDS011;8682;52.120;5.252;2022-10-16T10:06:26;431.20;;;390.90;;
17133;SDS011;8682;52.120;5.252;2022-10-16T10:08:54;517.53;;;463.70;;
17133;SDS011;8682;52.120;5.252;2022-10-16T10:11:41;638.37;;;575.67;;
17133;SDS011;8682;52.120;5.252;2022-10-16T10:14:15;632.17;;;568.00;;
17133;SDS011;8682;52.120;5.252;2022-10-16T10:16:43;620.97;;;560.40;;
17133;SDS011;8682;52.120;5.252;2022-10-16T10:19:13;601.67;;;540.33;;
17133;SDS011;8682;52.120;5.252;2022-10-16T10:21:41;979.77;;;731.90;;
17133;SDS011;8682;52.120;5.252;2022-10-16T10:24:09;566.80;;;511.20;;
17133;SDS011;8682;52.120;5.252;2022-10-16T10:26:37;554.10;;;497.97;;
17133;SDS011;8682;52.120;5.252;2022-10-16T10:29:05;539.87;;;486.60;;
17133;SDS011;8682;52.120;5.252;2022-10-16T10:31:38;598.20;;;542.57;;
17133;SDS011;8682;52.120;5.252;2022-10-16T10:34:12;491.73;;;441.13;;
17133;SDS011;8682;52.120;5.252;2022-10-16T10:36:45;614.77;;;550.37;;
17133;SDS011;8682;52.120;5.252;2022-10-16T10:39:17;723.57;;;639.67;;
17133;SDS011;8682;52.120;5.252;2022-10-16T10:44:37;1759.50;;;999.90;;
17133;SDS011;8682;52.120;5.252;2022-10-16T10:47:11;1175.47;;;851.50;;
17133;SDS011;8682;52.120;5.252;2022-10-16T10:49:45;1395.77;;;963.33;;
17133;SDS011;8682;52.120;5.252;2022-10-16T10:52:36;1146.03;;;788.07;;
17133;SDS011;8682;52.120;5.252;2022-10-16T10:55:09;1994.87;;;999.90;;
17133;SDS011;8682;52.120;5.252;2022-10-16T10:57:38;1642.23;;;999.90;;
17133;SDS011;8682;52.120;5.252;2022-10-16T11:00:13;1261.03;;;855.63;;
17133;SDS011;8682;52.120;5.252;2022-10-16T11:02:44;1096.03;;;795.43;;
17133;SDS011;8682;52.120;5.252;2022-10-16T11:08:07;737.80;;;659.03;;
17133;SDS011;8682;52.120;5.252;2022-10-16T11:10:38;707.10;;;632.93;;
17133;SDS011;8682;52.120;5.252;2022-10-16T11:13:10;944.43;;;807.07;;
17133;SDS011;8682;52.120;5.252;2022-10-16T11:15:42;999.43;;;679.90;;
17133;SDS011;8682;52.120;5.252;2022-10-16T11:18:13;537.17;;;479.53;;
17133;SDS011;8682;52.120;5.252;2022-10-16T11:20:44;980.33;;;869.73;;
17133;SDS011;8682;52.120;5.252;2022-10-16T11:23:14;1999.90;;;999.90;;
17133;SDS011;8682;52.120;5.252;2022-10-16T11:25:42;1487.60;;;543.87;;
17133;SDS011;8682;52.120;5.252;2022-10-16T11:28:10;1999.90;;;526.30;;
17133;SDS011;8682;52.120;5.252;2022-10-16T11:30:42;1999.90;;;999.90;;
17133;SDS011;8682;52.120;5.252;2022-10-16T11:33:22;1999.90;;;999.90;;
17133;SDS011;8682;52.120;5.252;2022-10-16T11:35:51;1201.33;;;272.10;;
17133;SDS011;8682;52.120;5.252;2022-10-16T11:38:23;1999.90;;;999.90;;
17133;SDS011;8682;52.120;5.252;2022-10-16T11:40:53;1999.90;;;999.90;;
17133;SDS011;8682;52.120;5.252;2022-10-16T11:43:24;1774.17;;;892.73;;
17133;SDS011;8682;52.120;5.252;2022-10-16T11:45:53;1575.53;;;878.93;;
17133;SDS011;8682;52.120;5.252;2022-10-16T11:48:24;1183.77;;;780.87;;
17133;SDS011;8682;52.120;5.252;2022-10-16T11:50:54;1999.90;;;999.90;;
17133;SDS011;8682;52.120;5.252;2022-10-16T11:53:23;1999.90;;;999.90;;
17133;SDS011;8682;52.120;5.252;2022-10-16T11:55:54;1999.90;;;999.90;;
17133;SDS011;8682;52.120;5.252;2022-10-16T11:58:22;1999.90;;;999.90;;
17133;SDS011;8682;52.120;5.252;2022-10-16T12:00:54;1999.90;;;999.90;;
17133;SDS011;8682;52.120;5.252;2022-10-16T12:03:25;1999.90;;;999.90;;
17133;SDS011;8682;52.120;5.252;2022-10-16T12:06:00;1556.23;;;702.00;;
17133;SDS011;8682;52.120;5.252;2022-10-16T12:08:29;1999.90;;;999.90;;
17133;SDS011;8682;52.120;5.252;2022-10-16T12:11:05;1999.90;;;999.90;;
17133;SDS011;8682;52.120;5.252;2022-10-16T12:13:34;1999.90;;;999.90;;
17133;SDS011;8682;52.120;5.252;2022-10-16T12:16:19;1999.90;;;999.90;;
17133;SDS011;8682;52.120;5.252;2022-10-16T12:18:48;1999.90;;;999.90;;
17133;SDS011;8682;52.120;5.252;2022-10-16T12:21:16;612.03;;;544.40;;
17133;SDS011;8682;52.120;5.252;2022-10-16T12:23:47;1999.90;;;999.90;;
17133;SDS011;8682;52.120;5.252;2022-10-16T12:26:22;1999.90;;;999.90;;
17133;SDS011;8682;52.120;5.252;2022-10-16T12:28:50;1999.90;;;999.90;;
17133;SDS011;8682;52.120;5.252;2022-10-16T12:31:17;1999.90;;;999.90;;
17133;SDS011;8682;52.120;5.252;2022-10-16T12:33:54;1999.90;;;999.90;;
17133;SDS011;8682;52.120;5.252;2022-10-16T12:36:26;1999.90;;;999.90;;
17133;SDS011;8682;52.120;5.252;2022-10-16T12:38:54;933.60;;;775.37;;
17133;SDS011;8682;52.120;5.252;2022-10-16T12:41:25;1455.40;;;930.97;;
17133;SDS011;8682;52.120;5.252;2022-10-16T12:43:52;1999.90;;;999.90;;
17133;SDS011;8682;52.120;5.252;2022-10-16T12:46:22;1999.90;;;999.90;;
17133;SDS011;8682;52.120;5.252;2022-10-16T12:48:49;1302.13;;;903.37;;
17133;SDS011;8682;52.120;5.252;2022-10-16T12:51:23;1239.13;;;876.17;;
17133;SDS011;8682;52.120;5.252;2022-10-16T12:54:00;1999.90;;;999.90;;
17133;SDS011;8682;52.120;5.252;2022-10-16T12:56:31;1999.90;;;999.90;;
17133;SDS011;8682;52.120;5.252;2022-10-16T12:59:04;1716.90;;;979.43;;
17133;SDS011;8682;52.120;5.252;2022-10-16T13:01:37;1319.70;;;984.73;;
17133;SDS011;8682;52.120;5.252;2022-10-16T13:04:15;1820.77;;;933.67;;
17133;SDS011;8682;52.120;5.252;2022-10-16T13:06:50;780.83;;;606.90;;
17133;SDS011;8682;52.120;5.252;2022-10-16T13:09:24;1096.60;;;927.47;;
17133;SDS011;8682;52.120;5.252;2022-10-16T13:12:00;1070.23;;;947.13;;
17133;SDS011;8682;52.120;5.252;2022-10-16T13:14:37;1999.90;;;999.90;;
17133;SDS011;8682;52.120;5.252;2022-10-16T13:17:08;659.03;;;606.42;;
17133;SDS011;8682;52.120;5.252;2022-10-16T13:19:40;1416.95;;;189.32;;
17133;SDS011;8682;52.120;5.252;2022-10-16T13:22:12;1989.87;;;940.80;;
17133;SDS011;8682;52.120;5.252;2022-10-16T13:24:50;1495.47;;;912.43;;
17133;SDS011;8682;52.120;5.252;2022-10-16T13:27:22;1222.30;;;946.70;;
17133;SDS011;8682;52.120;5.252;2022-10-16T13:29:52;1912.45;;;999.90;;
17133;SDS011;8682;52.120;5.252;2022-10-16T13:32:21;1999.90;;;999.90;;
17133;SDS011;8682;52.120;5.252;2022-10-16T13:34:48;1999.90;;;669.13;;
17133;SDS011;8682;52.120;5.252;2022-10-16T13:37:18;1133.97;;;980.77;;
17133;SDS011;8682;52.120;5.252;2022-10-16T13:39:46;1124.50;;;867.90;;
17133;SDS011;8682;52.120;5.252;2022-10-16T13:42:15;983.13;;;872.97;;
17133;SDS011;8682;52.120;5.252;2022-10-16T13:44:44;1229.20;;;939.93;;
17133;SDS011;8682;52.120;5.252;2022-10-16T13:47:15;1753.60;;;924.07;;
17133;SDS011;8682;52.120;5.252;2022-10-16T13:49:42;1999.90;;;999.90;;
17133;SDS011;8682;52.120;5.252;2022-10-16T13:52:15;1999.90;;;999.90;;
17133;SDS011;8682;52.120;5.252;2022-10-16T13:54:44;1999.90;;;999.90;;
17133;SDS011;8682;52.120;5.252;2022-10-16T13:57:13;1999.90;;;999.90;;
17133;SDS011;8682;52.120;5.252;2022-10-16T13:59:40;1999.90;;;999.90;;
17133;SDS011;8682;52.120;5.252;2022-10-16T14:02:10;1999.90;;;999.90;;
17133;SDS011;8682;52.120;5.252;2022-10-16T14:04:41;1999.90;;;999.90;;
17133;SDS011;8682;52.120;5.252;2022-10-16T14:07:12;1999.90;;;999.90;;
17133;SDS011;8682;52.120;5.252;2022-10-16T14:09:40;1999.90;;;999.90;;
17133;SDS011;8682;52.120;5.252;2022-10-16T14:12:09;1999.90;;;999.90;;
17133;SDS011;8682;52.120;5.252;2022-10-16T14:14:40;1573.90;;;729.57;;
17133;SDS011;8682;52.120;5.252;2022-10-16T14:17:13;1999.90;;;999.90;;
17133;SDS011;8682;52.120;5.252;2022-10-16T14:19:40;1999.90;;;999.90;;
17133;SDS011;8682;52.120;5.252;2022-10-16T14:22:18;680.97;;;148.33;;
17133;SDS011;8682;52.120;5.252;2022-10-16T14:24:48;904.57;;;214.10;;
17133;SDS011;8682;52.120;5.252;2022-10-16T14:27:23;1185.53;;;211.43;;